sensor_id;sensor_type;location;lat;lon;timestamp;temperature;humidity
59307;DHT22;47983;53.016;-2.260;2023-04-19T00:01:37;8.10;99.90
59307;DHT22;47983;53.016;-2.260;2023-04-19T00:04:05;8.00;99.90
59307;DHT22;47983;53.016;-2.260;2023-04-19T00:06:35;8.00;99.90
59307;DHT22;47983;53.016;-2.260;2023-04-19T00:09:02;7.90;99.90
59307;DHT22;47983;53.016;-2.260;2023-04-19T00:11:30;7.80;99.90
59307;DHT22;47983;53.016;-2.260;2023-04-19T00:13:58;7.80;99.90
59307;DHT22;47983;53.016;-2.260;2023-04-19T00:18:56;7.80;99.90
59307;DHT22;47983;53.016;-2.260;2023-04-19T00:21:30;7.70;99.90
59307;DHT22;47983;53.016;-2.260;2023-04-19T00:23:57;7.70;99.90
59307;DHT22;47983;53.016;-2.260;2023-04-19T00:26:25;7.70;99.90
59307;DHT22;47983;53.016;-2.260;2023-04-19T00:28:53;7.60;99.90
59307;DHT22;47983;53.016;-2.260;2023-04-19T00:31:21;7.60;99.90
59307;DHT22;47983;53.016;-2.260;2023-04-19T00:33:49;7.60;99.90
59307;DHT22;47983;53.016;-2.260;2023-04-19T00:36:17;7.60;99.90
59307;DHT22;47983;53.016;-2.260;2023-04-19T00:38:46;7.50;99.90
59307;DHT22;47983;53.016;-2.260;2023-04-19T00:41:14;7.50;99.90
59307;DHT22;47983;53.016;-2.260;2023-04-19T00:43:42;7.50;99.90
59307;DHT22;47983;53.016;-2.260;2023-04-19T00:46:10;7.50;99.90
59307;DHT22;47983;53.016;-2.260;2023-04-19T00:48:38;7.50;99.90
59307;DHT22;47983;53.016;-2.260;2023-04-19T00:51:05;7.50;99.90
59307;DHT22;47983;53.016;-2.260;2023-04-19T00:53:33;7.50;99.90
59307;DHT22;47983;53.016;-2.260;2023-04-19T00:56:02;7.50;99.90
59307;DHT22;47983;53.016;-2.260;2023-04-19T00:58:31;7.50;99.90
59307;DHT22;47983;53.016;-2.260;2023-04-19T01:00:59;7.50;99.90
59307;DHT22;47983;53.016;-2.260;2023-04-19T01:03:27;7.50;99.90
59307;DHT22;47983;53.016;-2.260;2023-04-19T01:05:57;7.50;99.90
59307;DHT22;47983;53.016;-2.260;2023-04-19T01:08:24;7.50;99.90
59307;DHT22;47983;53.016;-2.260;2023-04-19T01:10:53;7.60;99.90
59307;DHT22;47983;53.016;-2.260;2023-04-19T01:13:21;7.60;99.90
59307;DHT22;47983;53.016;-2.260;2023-04-19T01:15:49;7.60;99.90
59307;DHT22;47983;53.016;-2.260;2023-04-19T01:18:20;7.60;99.90
59307;DHT22;47983;53.016;-2.260;2023-04-19T01:20:49;7.70;99.90
59307;DHT22;47983;53.016;-2.260;2023-04-19T01:23:16;7.70;99.90
59307;DHT22;47983;53.016;-2.260;2023-04-19T01:25:44;7.70;99.90
59307;DHT22;47983;53.016;-2.260;2023-04-19T01:28:12;7.70;99.90
59307;DHT22;47983;53.016;-2.260;2023-04-19T01:30:40;7.70;99.90
59307;DHT22;47983;53.016;-2.260;2023-04-19T01:33:08;7.80;99.90
59307;DHT22;47983;53.016;-2.260;2023-04-19T01:35:35;7.80;99.90
59307;DHT22;47983;53.016;-2.260;2023-04-19T01:38:03;7.80;99.90
59307;DHT22;47983;53.016;-2.260;2023-04-19T01:40:32;7.80;99.90
59307;DHT22;47983;53.016;-2.260;2023-04-19T01:42:59;7.80;99.90
59307;DHT22;47983;53.016;-2.260;2023-04-19T01:45:27;7.80;99.90
59307;DHT22;47983;53.016;-2.260;2023-04-19T01:47:55;7.80;99.90
59307;DHT22;47983;53.016;-2.260;2023-04-19T01:50:23;7.80;99.90
59307;DHT22;47983;53.016;-2.260;2023-04-19T01:52:51;7.80;99.90
59307;DHT22;47983;53.016;-2.260;2023-04-19T01:55:18;7.80;99.90
59307;DHT22;47983;53.016;-2.260;2023-04-19T01:57:46;7.80;99.90
59307;DHT22;47983;53.016;-2.260;2023-04-19T02:00:14;7.80;99.90
59307;DHT22;47983;53.016;-2.260;2023-04-19T02:02:41;7.80;99.90
59307;DHT22;47983;53.016;-2.260;2023-04-19T02:05:10;7.80;99.90
59307;DHT22;47983;53.016;-2.260;2023-04-19T02:07:37;7.80;99.90
59307;DHT22;47983;53.016;-2.260;2023-04-19T02:10:08;7.80;99.90
59307;DHT22;47983;53.016;-2.260;2023-04-19T02:12:35;7.80;99.90
59307;DHT22;47983;53.016;-2.260;2023-04-19T02:15:03;7.80;99.90
59307;DHT22;47983;53.016;-2.260;2023-04-19T02:17:33;7.80;99.90
59307;DHT22;47983;53.016;-2.260;2023-04-19T02:20:02;7.80;99.90
59307;DHT22;47983;53.016;-2.260;2023-04-19T02:24:59;7.80;99.90
59307;DHT22;47983;53.016;-2.260;2023-04-19T02:27:31;7.80;99.90
59307;DHT22;47983;53.016;-2.260;2023-04-19T02:29:59;7.80;99.90
59307;DHT22;47983;53.016;-2.260;2023-04-19T02:32:27;7.70;99.90
59307;DHT22;47983;53.016;-2.260;2023-04-19T02:34:55;7.70;99.90
59307;DHT22;47983;53.016;-2.260;2023-04-19T02:37:22;7.70;99.90
59307;DHT22;47983;53.016;-2.260;2023-04-19T02:39:50;7.80;99.90
59307;DHT22;47983;53.016;-2.260;2023-04-19T02:42:17;7.70;99.90
59307;DHT22;47983;53.016;-2.260;2023-04-19T02:44:45;7.70;99.90
59307;DHT22;47983;53.016;-2.260;2023-04-19T02:47:14;7.70;99.90
59307;DHT22;47983;53.016;-2.260;2023-04-19T02:49:42;7.70;99.90
59307;DHT22;47983;53.016;-2.260;2023-04-19T02:52:10;7.60;99.90
59307;DHT22;47983;53.016;-2.260;2023-04-19T02:54:40;7.70;99.90
59307;DHT22;47983;53.016;-2.260;2023-04-19T02:57:07;7.70;99.90
59307;DHT22;47983;53.016;-2.260;2023-04-19T02:59:36;7.60;99.90
59307;DHT22;47983;53.016;-2.260;2023-04-19T03:02:04;7.70;99.90
59307;DHT22;47983;53.016;-2.260;2023-04-19T03:04:32;7.70;99.90
59307;DHT22;47983;53.016;-2.260;2023-04-19T03:07:01;7.70;99.90
59307;DHT22;47983;53.016;-2.260;2023-04-19T03:09:28;7.70;99.90
59307;DHT22;47983;53.016;-2.260;2023-04-19T03:11:57;7.70;99.90
59307;DHT22;47983;53.016;-2.260;2023-04-19T03:14:25;7.70;99.90
59307;DHT22;47983;53.016;-2.260;2023-04-19T03:16:52;7.70;99.90
59307;DHT22;47983;53.016;-2.260;2023-04-19T03:19:20;7.70;99.90
59307;DHT22;47983;53.016;-2.260;2023-04-19T03:21:51;7.70;99.90
59307;DHT22;47983;53.016;-2.260;2023-04-19T03:24:27;7.80;99.90
59307;DHT22;47983;53.016;-2.260;2023-04-19T03:27:06;7.80;99.90
59307;DHT22;47983;53.016;-2.260;2023-04-19T03:29:35;7.80;99.90
59307;DHT22;47983;53.016;-2.260;2023-04-19T03:32:06;7.80;99.90
59307;DHT22;47983;53.016;-2.260;2023-04-19T03:34:34;7.80;99.90
59307;DHT22;47983;53.016;-2.260;2023-04-19T03:37:01;7.80;99.90
59307;DHT22;47983;53.016;-2.260;2023-04-19T03:39:31;7.80;99.90
59307;DHT22;47983;53.016;-2.260;2023-04-19T03:42:02;7.90;99.90
59307;DHT22;47983;53.016;-2.260;2023-04-19T03:44:56;7.90;99.90
59307;DHT22;47983;53.016;-2.260;2023-04-19T03:47:29;7.90;99.90
59307;DHT22;47983;53.016;-2.260;2023-04-19T03:49:58;7.90;99.90
59307;DHT22;47983;53.016;-2.260;2023-04-19T03:52:27;7.90;99.90
59307;DHT22;47983;53.016;-2.260;2023-04-19T03:54:55;7.90;99.90
59307;DHT22;47983;53.016;-2.260;2023-04-19T03:57:31;7.90;99.90
59307;DHT22;47983;53.016;-2.260;2023-04-19T04:00:02;8.00;99.90
59307;DHT22;47983;53.016;-2.260;2023-04-19T04:02:40;8.00;99.90
59307;DHT22;47983;53.016;-2.260;2023-04-19T04:05:08;8.00;99.90
59307;DHT22;47983;53.016;-2.260;2023-04-19T04:07:39;8.00;99.90
59307;DHT22;47983;53.016;-2.260;2023-04-19T04:10:07;8.00;99.90
59307;DHT22;47983;53.016;-2.260;2023-04-19T04:12:41;8.00;99.90
59307;DHT22;47983;53.016;-2.260;2023-04-19T04:15:12;8.00;99.90
59307;DHT22;47983;53.016;-2.260;2023-04-19T04:17:46;8.10;99.90
59307;DHT22;47983;53.016;-2.260;2023-04-19T04:20:14;8.10;99.90
59307;DHT22;47983;53.016;-2.260;2023-04-19T04:22:43;8.10;99.90
59307;DHT22;47983;53.016;-2.260;2023-04-19T04:25:14;8.10;99.90
59307;DHT22;47983;53.016;-2.260;2023-04-19T04:27:42;8.10;99.90
59307;DHT22;47983;53.016;-2.260;2023-04-19T04:30:14;8.10;99.90
59307;DHT22;47983;53.016;-2.260;2023-04-19T04:32:43;8.10;99.90
59307;DHT22;47983;53.016;-2.260;2023-04-19T04:35:11;8.10;99.90
59307;DHT22;47983;53.016;-2.260;2023-04-19T04:37:44;8.10;99.90
59307;DHT22;47983;53.016;-2.260;2023-04-19T04:40:13;8.10;99.90
59307;DHT22;47983;53.016;-2.260;2023-04-19T04:42:42;8.10;99.90
59307;DHT22;47983;53.016;-2.260;2023-04-19T04:45:12;8.10;99.90
59307;DHT22;47983;53.016;-2.260;2023-04-19T04:47:42;8.10;99.90
59307;DHT22;47983;53.016;-2.260;2023-04-19T04:50:14;8.10;99.90
59307;DHT22;47983;53.016;-2.260;2023-04-19T04:52:42;8.10;99.90
59307;DHT22;47983;53.016;-2.260;2023-04-19T04:55:15;8.10;99.90
59307;DHT22;47983;53.016;-2.260;2023-04-19T04:57:44;8.10;99.90
59307;DHT22;47983;53.016;-2.260;2023-04-19T05:00:22;8.10;99.90
59307;DHT22;47983;53.016;-2.260;2023-04-19T05:03:09;8.10;99.90
59307;DHT22;47983;53.016;-2.260;2023-04-19T05:05:45;8.10;99.90
59307;DHT22;47983;53.016;-2.260;2023-04-19T05:08:13;8.10;99.90
59307;DHT22;47983;53.016;-2.260;2023-04-19T05:10:44;8.10;99.90
59307;DHT22;47983;53.016;-2.260;2023-04-19T05:13:14;8.10;99.90
59307;DHT22;47983;53.016;-2.260;2023-04-19T05:15:42;8.10;99.90
59307;DHT22;47983;53.016;-2.260;2023-04-19T05:20:39;8.10;99.90
59307;DHT22;47983;53.016;-2.260;2023-04-19T05:23:15;8.10;99.90
59307;DHT22;47983;53.016;-2.260;2023-04-19T05:25:43;8.10;99.90
59307;DHT22;47983;53.016;-2.260;2023-04-19T05:28:11;8.10;99.90
59307;DHT22;47983;53.016;-2.260;2023-04-19T05:30:46;8.20;99.90
59307;DHT22;47983;53.016;-2.260;2023-04-19T05:33:15;8.10;99.90
59307;DHT22;47983;53.016;-2.260;2023-04-19T05:35:42;8.10;99.90
59307;DHT22;47983;53.016;-2.260;2023-04-19T05:38:10;8.10;99.90
59307;DHT22;47983;53.016;-2.260;2023-04-19T05:40:38;8.20;99.90
59307;DHT22;47983;53.016;-2.260;2023-04-19T05:43:06;8.20;99.90
59307;DHT22;47983;53.016;-2.260;2023-04-19T05:45:34;8.20;99.90
59307;DHT22;47983;53.016;-2.260;2023-04-19T05:48:02;8.20;99.90
59307;DHT22;47983;53.016;-2.260;2023-04-19T05:50:48;8.20;99.90
59307;DHT22;47983;53.016;-2.260;2023-04-19T05:53:40;8.30;99.90
59307;DHT22;47983;53.016;-2.260;2023-04-19T05:56:07;8.20;99.90
59307;DHT22;47983;53.016;-2.260;2023-04-19T05:58:35;8.30;99.90
59307;DHT22;47983;53.016;-2.260;2023-04-19T06:01:03;8.30;99.90
59307;DHT22;47983;53.016;-2.260;2023-04-19T06:03:31;8.30;99.90
59307;DHT22;47983;53.016;-2.260;2023-04-19T06:06:01;8.40;99.90
59307;DHT22;47983;53.016;-2.260;2023-04-19T06:08:28;8.30;99.90
59307;DHT22;47983;53.016;-2.260;2023-04-19T06:10:56;8.40;99.90
59307;DHT22;47983;53.016;-2.260;2023-04-19T06:13:34;8.40;99.90
59307;DHT22;47983;53.016;-2.260;2023-04-19T06:16:02;8.40;99.90
59307;DHT22;47983;53.016;-2.260;2023-04-19T06:18:31;8.30;99.90
59307;DHT22;47983;53.016;-2.260;2023-04-19T06:21:01;8.30;99.90
59307;DHT22;47983;53.016;-2.260;2023-04-19T06:23:29;8.30;99.90
59307;DHT22;47983;53.016;-2.260;2023-04-19T06:25:56;8.30;99.90
59307;DHT22;47983;53.016;-2.260;2023-04-19T06:28:26;8.30;99.90
59307;DHT22;47983;53.016;-2.260;2023-04-19T06:30:53;8.20;99.90
59307;DHT22;47983;53.016;-2.260;2023-04-19T06:33:21;8.20;99.90
59307;DHT22;47983;53.016;-2.260;2023-04-19T06:35:49;8.20;99.90
59307;DHT22;47983;53.016;-2.260;2023-04-19T06:38:17;8.20;99.90
59307;DHT22;47983;53.016;-2.260;2023-04-19T06:40:45;8.20;99.90
59307;DHT22;47983;53.016;-2.260;2023-04-19T06:43:12;8.20;99.90
59307;DHT22;47983;53.016;-2.260;2023-04-19T06:45:40;8.20;99.90
59307;DHT22;47983;53.016;-2.260;2023-04-19T06:48:08;8.20;99.90
59307;DHT22;47983;53.016;-2.260;2023-04-19T06:50:35;8.20;99.90
59307;DHT22;47983;53.016;-2.260;2023-04-19T06:53:03;8.30;99.90
59307;DHT22;47983;53.016;-2.260;2023-04-19T06:55:31;8.40;99.90
59307;DHT22;47983;53.016;-2.260;2023-04-19T06:57:59;8.40;99.90
59307;DHT22;47983;53.016;-2.260;2023-04-19T07:00:26;8.50;99.90
59307;DHT22;47983;53.016;-2.260;2023-04-19T07:02:56;8.60;99.90
59307;DHT22;47983;53.016;-2.260;2023-04-19T07:05:26;8.60;99.90
59307;DHT22;47983;53.016;-2.260;2023-04-19T07:07:53;8.70;99.90
59307;DHT22;47983;53.016;-2.260;2023-04-19T07:10:21;8.70;99.90
59307;DHT22;47983;53.016;-2.260;2023-04-19T07:12:49;8.80;99.90
59307;DHT22;47983;53.016;-2.260;2023-04-19T07:15:17;8.80;99.90
59307;DHT22;47983;53.016;-2.260;2023-04-19T07:17:45;8.80;99.90
59307;DHT22;47983;53.016;-2.260;2023-04-19T07:20:13;8.80;99.90
59307;DHT22;47983;53.016;-2.260;2023-04-19T07:22:40;8.80;99.90
59307;DHT22;47983;53.016;-2.260;2023-04-19T07:25:08;8.80;99.90
59307;DHT22;47983;53.016;-2.260;2023-04-19T07:27:36;8.80;99.90
59307;DHT22;47983;53.016;-2.260;2023-04-19T07:30:06;8.90;99.90
59307;DHT22;47983;53.016;-2.260;2023-04-19T07:32:34;8.80;99.90
59307;DHT22;47983;53.016;-2.260;2023-04-19T07:35:02;8.90;99.90
59307;DHT22;47983;53.016;-2.260;2023-04-19T07:37:30;8.90;99.90
59307;DHT22;47983;53.016;-2.260;2023-04-19T07:40:00;8.90;99.90
59307;DHT22;47983;53.016;-2.260;2023-04-19T07:42:30;9.00;99.90
59307;DHT22;47983;53.016;-2.260;2023-04-19T07:44:58;9.00;99.90
59307;DHT22;47983;53.016;-2.260;2023-04-19T07:47:26;9.10;99.90
59307;DHT22;47983;53.016;-2.260;2023-04-19T07:49:54;9.00;99.90
59307;DHT22;47983;53.016;-2.260;2023-04-19T07:52:22;9.10;99.90
59307;DHT22;47983;53.016;-2.260;2023-04-19T07:54:50;9.20;99.90
59307;DHT22;47983;53.016;-2.260;2023-04-19T07:57:18;9.20;99.90
59307;DHT22;47983;53.016;-2.260;2023-04-19T07:59:46;9.20;99.90
59307;DHT22;47983;53.016;-2.260;2023-04-19T08:02:13;9.30;99.90
59307;DHT22;47983;53.016;-2.260;2023-04-19T08:04:44;9.40;99.90
59307;DHT22;47983;53.016;-2.260;2023-04-19T08:07:14;9.40;99.90
59307;DHT22;47983;53.016;-2.260;2023-04-19T08:09:42;9.50;99.90
59307;DHT22;47983;53.016;-2.260;2023-04-19T08:12:10;9.50;99.90
59307;DHT22;47983;53.016;-2.260;2023-04-19T08:14:52;9.60;99.90
59307;DHT22;47983;53.016;-2.260;2023-04-19T08:17:39;9.60;99.90
59307;DHT22;47983;53.016;-2.260;2023-04-19T08:20:12;9.60;99.90
59307;DHT22;47983;53.016;-2.260;2023-04-19T08:22:41;9.70;99.90
59307;DHT22;47983;53.016;-2.260;2023-04-19T08:25:09;9.80;99.90
59307;DHT22;47983;53.016;-2.260;2023-04-19T08:27:36;9.80;99.90
59307;DHT22;47983;53.016;-2.260;2023-04-19T08:30:04;9.90;99.90
59307;DHT22;47983;53.016;-2.260;2023-04-19T08:32:34;9.90;99.90
59307;DHT22;47983;53.016;-2.260;2023-04-19T08:35:01;9.90;99.90
59307;DHT22;47983;53.016;-2.260;2023-04-19T08:37:30;9.90;99.90
59307;DHT22;47983;53.016;-2.260;2023-04-19T08:39:57;10.00;99.90
59307;DHT22;47983;53.016;-2.260;2023-04-19T08:42:28;10.00;99.90
59307;DHT22;47983;53.016;-2.260;2023-04-19T08:45:03;9.90;99.90
59307;DHT22;47983;53.016;-2.260;2023-04-19T08:47:36;10.00;99.90
59307;DHT22;47983;53.016;-2.260;2023-04-19T08:50:23;10.10;99.90
59307;DHT22;47983;53.016;-2.260;2023-04-19T08:53:05;10.20;99.90
59307;DHT22;47983;53.016;-2.260;2023-04-19T08:55:51;10.20;99.90
59307;DHT22;47983;53.016;-2.260;2023-04-19T08:58:28;10.30;99.90
59307;DHT22;47983;53.016;-2.260;2023-04-19T09:01:18;10.40;99.90
59307;DHT22;47983;53.016;-2.260;2023-04-19T09:04:05;10.60;99.90
59307;DHT22;47983;53.016;-2.260;2023-04-19T09:06:57;10.70;99.90
59307;DHT22;47983;53.016;-2.260;2023-04-19T09:09:28;10.80;99.90
59307;DHT22;47983;53.016;-2.260;2023-04-19T09:11:59;10.90;99.90
59307;DHT22;47983;53.016;-2.260;2023-04-19T09:14:27;11.10;99.90
59307;DHT22;47983;53.016;-2.260;2023-04-19T09:17:14;11.10;99.90
59307;DHT22;47983;53.016;-2.260;2023-04-19T09:19:46;11.30;99.90
59307;DHT22;47983;53.016;-2.260;2023-04-19T09:22:15;11.40;99.90
59307;DHT22;47983;53.016;-2.260;2023-04-19T09:24:43;11.60;99.90
59307;DHT22;47983;53.016;-2.260;2023-04-19T09:27:33;11.60;99.90
59307;DHT22;47983;53.016;-2.260;2023-04-19T09:30:12;11.90;99.90
59307;DHT22;47983;53.016;-2.260;2023-04-19T09:32:57;11.80;99.90
59307;DHT22;47983;53.016;-2.260;2023-04-19T09:35:45;12.00;99.90
59307;DHT22;47983;53.016;-2.260;2023-04-19T09:38:15;12.10;99.90
59307;DHT22;47983;53.016;-2.260;2023-04-19T09:40:43;12.20;99.90
59307;DHT22;47983;53.016;-2.260;2023-04-19T09:43:10;12.30;99.90
59307;DHT22;47983;53.016;-2.260;2023-04-19T09:48:27;12.80;99.90
59307;DHT22;47983;53.016;-2.260;2023-04-19T09:50:57;12.70;99.90
59307;DHT22;47983;53.016;-2.260;2023-04-19T09:53:31;12.80;99.90
59307;DHT22;47983;53.016;-2.260;2023-04-19T09:56:02;12.90;99.90
59307;DHT22;47983;53.016;-2.260;2023-04-19T09:58:31;12.90;99.90
59307;DHT22;47983;53.016;-2.260;2023-04-19T10:01:03;13.00;99.90
59307;DHT22;47983;53.016;-2.260;2023-04-19T10:03:45;13.00;99.90
59307;DHT22;47983;53.016;-2.260;2023-04-19T10:06:17;13.00;99.90
59307;DHT22;47983;53.016;-2.260;2023-04-19T10:08:49;12.90;99.90
59307;DHT22;47983;53.016;-2.260;2023-04-19T10:11:19;12.90;99.90
59307;DHT22;47983;53.016;-2.260;2023-04-19T10:13:48;13.00;99.90
59307;DHT22;47983;53.016;-2.260;2023-04-19T10:16:17;13.00;99.90
59307;DHT22;47983;53.016;-2.260;2023-04-19T10:18:50;13.00;99.90
59307;DHT22;47983;53.016;-2.260;2023-04-19T10:21:19;13.00;99.90
59307;DHT22;47983;53.016;-2.260;2023-04-19T10:23:47;13.00;99.90
59307;DHT22;47983;53.016;-2.260;2023-04-19T10:26:15;13.00;99.90
59307;DHT22;47983;53.016;-2.260;2023-04-19T10:28:42;13.00;99.90
59307;DHT22;47983;53.016;-2.260;2023-04-19T10:31:11;13.00;99.90
59307;DHT22;47983;53.016;-2.260;2023-04-19T10:33:40;13.10;99.90
59307;DHT22;47983;53.016;-2.260;2023-04-19T10:36:09;13.30;99.90
59307;DHT22;47983;53.016;-2.260;2023-04-19T10:38:42;13.50;99.90
59307;DHT22;47983;53.016;-2.260;2023-04-19T10:41:12;13.70;99.90
59307;DHT22;47983;53.016;-2.260;2023-04-19T10:48:57;14.00;99.90
59307;DHT22;47983;53.016;-2.260;2023-04-19T10:51:34;14.10;99.90
59307;DHT22;47983;53.016;-2.260;2023-04-19T10:54:07;14.30;99.90
59307;DHT22;47983;53.016;-2.260;2023-04-19T10:56:55;14.40;99.90
59307;DHT22;47983;53.016;-2.260;2023-04-19T10:59:22;14.60;99.90
59307;DHT22;47983;53.016;-2.260;2023-04-19T11:02:01;14.80;99.90
59307;DHT22;47983;53.016;-2.260;2023-04-19T11:07:02;15.00;99.90
59307;DHT22;47983;53.016;-2.260;2023-04-19T11:09:35;14.90;99.90
59307;DHT22;47983;53.016;-2.260;2023-04-19T11:14:40;14.70;99.90
59307;DHT22;47983;53.016;-2.260;2023-04-19T11:17:17;14.60;99.90
59307;DHT22;47983;53.016;-2.260;2023-04-19T11:25:10;14.40;99.90
59307;DHT22;47983;53.016;-2.260;2023-04-19T11:27:40;14.40;99.90
59307;DHT22;47983;53.016;-2.260;2023-04-19T11:30:17;16.40;99.90
59307;DHT22;47983;53.016;-2.260;2023-04-19T11:32:49;14.20;99.90
59307;DHT22;47983;53.016;-2.260;2023-04-19T11:35:22;14.20;99.90
59307;DHT22;47983;53.016;-2.260;2023-04-19T11:37:53;14.10;99.90
59307;DHT22;47983;53.016;-2.260;2023-04-19T11:40:23;14.00;99.90
59307;DHT22;47983;53.016;-2.260;2023-04-19T11:42:57;14.00;99.90
59307;DHT22;47983;53.016;-2.260;2023-04-19T11:45:34;14.10;99.90
59307;DHT22;47983;53.016;-2.260;2023-04-19T11:48:12;14.20;99.90
59307;DHT22;47983;53.016;-2.260;2023-04-19T11:50:44;14.20;99.90
59307;DHT22;47983;53.016;-2.260;2023-04-19T11:53:16;14.20;99.90
59307;DHT22;47983;53.016;-2.260;2023-04-19T11:55:49;14.30;99.90
59307;DHT22;47983;53.016;-2.260;2023-04-19T11:58:45;14.30;99.90
59307;DHT22;47983;53.016;-2.260;2023-04-19T12:01:20;14.30;99.90
59307;DHT22;47983;53.016;-2.260;2023-04-19T12:03:50;14.30;99.90
59307;DHT22;47983;53.016;-2.260;2023-04-19T12:06:23;15.60;99.90
59307;DHT22;47983;53.016;-2.260;2023-04-19T12:08:53;14.50;99.90
59307;DHT22;47983;53.016;-2.260;2023-04-19T12:11:25;14.70;99.90
59307;DHT22;47983;53.016;-2.260;2023-04-19T12:14:11;14.90;99.90
59307;DHT22;47983;53.016;-2.260;2023-04-19T12:16:40;15.00;99.90
59307;DHT22;47983;53.016;-2.260;2023-04-19T12:19:15;15.00;99.90
59307;DHT22;47983;53.016;-2.260;2023-04-19T12:21:47;15.10;99.90
59307;DHT22;47983;53.016;-2.260;2023-04-19T12:24:16;15.10;99.90
59307;DHT22;47983;53.016;-2.260;2023-04-19T12:26:54;15.10;99.90
59307;DHT22;47983;53.016;-2.260;2023-04-19T12:29:23;15.10;99.90
59307;DHT22;47983;53.016;-2.260;2023-04-19T12:31:50;15.10;99.90
59307;DHT22;47983;53.016;-2.260;2023-04-19T12:34:19;15.10;99.90
59307;DHT22;47983;53.016;-2.260;2023-04-19T12:36:47;15.20;99.90
59307;DHT22;47983;53.016;-2.260;2023-04-19T12:39:14;15.30;99.90
59307;DHT22;47983;53.016;-2.260;2023-04-19T12:41:42;15.30;99.90
59307;DHT22;47983;53.016;-2.260;2023-04-19T12:44:10;15.30;99.90
59307;DHT22;47983;53.016;-2.260;2023-04-19T12:46:38;15.30;99.90
59307;DHT22;47983;53.016;-2.260;2023-04-19T12:49:06;15.30;99.90
59307;DHT22;47983;53.016;-2.260;2023-04-19T12:51:34;15.30;99.90
59307;DHT22;47983;53.016;-2.260;2023-04-19T12:54:04;15.20;99.90
59307;DHT22;47983;53.016;-2.260;2023-04-19T12:56:34;15.20;99.90
59307;DHT22;47983;53.016;-2.260;2023-04-19T12:59:01;15.10;99.90
59307;DHT22;47983;53.016;-2.260;2023-04-19T13:01:29;15.10;99.90
59307;DHT22;47983;53.016;-2.260;2023-04-19T13:04:01;15.10;99.90
59307;DHT22;47983;53.016;-2.260;2023-04-19T13:06:29;15.10;99.90
59307;DHT22;47983;53.016;-2.260;2023-04-19T13:08:57;15.10;99.90
59307;DHT22;47983;53.016;-2.260;2023-04-19T13:11:27;15.20;99.90
59307;DHT22;47983;53.016;-2.260;2023-04-19T13:16:27;15.20;99.90
59307;DHT22;47983;53.016;-2.260;2023-04-19T13:18:54;15.30;99.90
59307;DHT22;47983;53.016;-2.260;2023-04-19T13:21:22;15.30;99.90
59307;DHT22;47983;53.016;-2.260;2023-04-19T13:23:53;15.40;99.90
59307;DHT22;47983;53.016;-2.260;2023-04-19T13:26:20;15.40;99.90
59307;DHT22;47983;53.016;-2.260;2023-04-19T13:28:48;15.50;99.90
59307;DHT22;47983;53.016;-2.260;2023-04-19T13:31:16;15.70;99.90
59307;DHT22;47983;53.016;-2.260;2023-04-19T13:36:12;16.50;99.90
59307;DHT22;47983;53.016;-2.260;2023-04-19T13:38:40;17.40;99.90
59307;DHT22;47983;53.016;-2.260;2023-04-19T13:41:08;17.40;99.90
59307;DHT22;47983;53.016;-2.260;2023-04-19T13:43:35;18.00;99.90
59307;DHT22;47983;53.016;-2.260;2023-04-19T13:48:32;18.40;97.20
59307;DHT22;47983;53.016;-2.260;2023-04-19T13:50:59;18.40;96.90
59307;DHT22;47983;53.016;-2.260;2023-04-19T13:53:27;18.50;97.40
59307;DHT22;47983;53.016;-2.260;2023-04-19T13:55:56;19.20;95.50
59307;DHT22;47983;53.016;-2.260;2023-04-19T13:58:23;19.20;95.50
59307;DHT22;47983;53.016;-2.260;2023-04-19T14:00:51;19.60;94.20
59307;DHT22;47983;53.016;-2.260;2023-04-19T14:03:21;19.90;93.30
59307;DHT22;47983;53.016;-2.260;2023-04-19T14:05:49;20.20;90.90
59307;DHT22;47983;53.016;-2.260;2023-04-19T14:08:17;20.20;91.20
59307;DHT22;47983;53.016;-2.260;2023-04-19T14:10:45;20.30;90.90
59307;DHT22;47983;53.016;-2.260;2023-04-19T14:13:12;19.80;87.30
59307;DHT22;47983;53.016;-2.260;2023-04-19T14:15:40;19.70;88.30
59307;DHT22;47983;53.016;-2.260;2023-04-19T14:18:08;19.50;90.50
59307;DHT22;47983;53.016;-2.260;2023-04-19T14:20:37;19.60;88.50
59307;DHT22;47983;53.016;-2.260;2023-04-19T14:23:07;19.80;89.90
59307;DHT22;47983;53.016;-2.260;2023-04-19T14:25:35;20.10;86.80
59307;DHT22;47983;53.016;-2.260;2023-04-19T14:28:06;20.20;83.90
59307;DHT22;47983;53.016;-2.260;2023-04-19T14:30:34;20.10;84.20
59307;DHT22;47983;53.016;-2.260;2023-04-19T14:33:02;20.30;85.00
59307;DHT22;47983;53.016;-2.260;2023-04-19T14:35:31;20.30;79.80
59307;DHT22;47983;53.016;-2.260;2023-04-19T14:37:59;20.30;80.20
59307;DHT22;47983;53.016;-2.260;2023-04-19T14:40:27;20.10;77.30
59307;DHT22;47983;53.016;-2.260;2023-04-19T14:42:55;19.80;77.60
59307;DHT22;47983;53.016;-2.260;2023-04-19T14:45:23;19.50;78.30
59307;DHT22;47983;53.016;-2.260;2023-04-19T14:47:51;19.50;79.20
59307;DHT22;47983;53.016;-2.260;2023-04-19T14:50:20;19.40;76.60
59307;DHT22;47983;53.016;-2.260;2023-04-19T14:52:48;19.40;73.80
59307;DHT22;47983;53.016;-2.260;2023-04-19T14:55:16;19.40;71.90
59307;DHT22;47983;53.016;-2.260;2023-04-19T14:57:45;19.40;71.70
59307;DHT22;47983;53.016;-2.260;2023-04-19T15:00:13;19.40;68.20
59307;DHT22;47983;53.016;-2.260;2023-04-19T15:02:42;19.40;64.40
59307;DHT22;47983;53.016;-2.260;2023-04-19T15:05:10;19.40;65.00
59307;DHT22;47983;53.016;-2.260;2023-04-19T15:07:39;19.40;64.20
59307;DHT22;47983;53.016;-2.260;2023-04-19T15:10:07;19.00;64.90
59307;DHT22;47983;53.016;-2.260;2023-04-19T15:12:35;18.80;65.70
59307;DHT22;47983;53.016;-2.260;2023-04-19T15:15:04;18.70;66.30
59307;DHT22;47983;53.016;-2.260;2023-04-19T15:17:32;18.10;66.50
59307;DHT22;47983;53.016;-2.260;2023-04-19T15:19:59;18.10;67.00
59307;DHT22;47983;53.016;-2.260;2023-04-19T15:22:27;17.90;66.00
59307;DHT22;47983;53.016;-2.260;2023-04-19T15:24:55;17.70;66.40
59307;DHT22;47983;53.016;-2.260;2023-04-19T15:27:24;17.50;67.50
59307;DHT22;47983;53.016;-2.260;2023-04-19T15:29:52;17.30;64.10
59307;DHT22;47983;53.016;-2.260;2023-04-19T15:32:20;17.20;64.90
59307;DHT22;47983;53.016;-2.260;2023-04-19T15:34:48;17.10;65.80
59307;DHT22;47983;53.016;-2.260;2023-04-19T15:37:15;17.00;64.30
59307;DHT22;47983;53.016;-2.260;2023-04-19T15:39:43;16.80;63.00
59307;DHT22;47983;53.016;-2.260;2023-04-19T15:42:11;16.70;63.50
59307;DHT22;47983;53.016;-2.260;2023-04-19T15:44:38;16.70;63.50
59307;DHT22;47983;53.016;-2.260;2023-04-19T15:47:10;16.60;64.70
59307;DHT22;47983;53.016;-2.260;2023-04-19T15:49:37;16.40;62.50
59307;DHT22;47983;53.016;-2.260;2023-04-19T15:52:07;16.40;63.00
59307;DHT22;47983;53.016;-2.260;2023-04-19T15:54:35;16.20;62.50
59307;DHT22;47983;53.016;-2.260;2023-04-19T15:57:05;16.20;63.10
59307;DHT22;47983;53.016;-2.260;2023-04-19T15:59:33;16.20;63.50
59307;DHT22;47983;53.016;-2.260;2023-04-19T16:02:01;16.10;63.60
59307;DHT22;47983;53.016;-2.260;2023-04-19T16:04:28;16.00;64.50
59307;DHT22;47983;53.016;-2.260;2023-04-19T16:06:58;15.90;64.90
59307;DHT22;47983;53.016;-2.260;2023-04-19T16:09:28;15.80;64.70
59307;DHT22;47983;53.016;-2.260;2023-04-19T16:11:58;15.80;62.20
59307;DHT22;47983;53.016;-2.260;2023-04-19T16:14:26;15.70;61.20
59307;DHT22;47983;53.016;-2.260;2023-04-19T16:16:53;15.70;61.40